sensor_id;sensor_type;location;lat;lon;timestamp;P1;durP1;ratioP1;P2;durP2;ratioP2
16994;SDS011;8614;48.522;9.206;2023-12-07T03:41:16;23.53;;;21.33;;
16994;SDS011;8614;48.522;9.206;2023-12-07T03:43:43;25.43;;;22.87;;
16994;SDS011;8614;48.522;9.206;2023-12-07T03:46:10;21.73;;;19.83;;
16994;SDS011;8614;48.522;9.206;2023-12-07T03:48:37;23.50;;;21.47;;
16994;SDS011;8614;48.522;9.206;2023-12-07T03:54:04;23.40;;;21.43;;
16994;SDS011;8614;48.522;9.206;2023-12-07T04:11:44;21.80;;;19.90;;
16994;SDS011;8614;48.522;9.206;2023-12-07T04:14:13;23.93;;;21.60;;
16994;SDS011;8614;48.522;9.206;2023-12-07T04:16:51;23.40;;;21.20;;
16994;SDS011;8614;48.522;9.206;2023-12-07T05:02:02;20.23;;;18.43;;
16994;SDS011;8614;48.522;9.206;2023-12-07T05:32:32;18.53;;;17.03;;
16994;SDS011;8614;48.522;9.206;2023-12-07T05:35:25;18.13;;;16.83;;
16994;SDS011;8614;48.522;9.206;2023-12-07T05:38:19;20.50;;;18.90;;
16994;SDS011;8614;48.522;9.206;2023-12-07T05:41:25;18.17;;;16.87;;
16994;SDS011;8614;48.522;9.206;2023-12-07T05:44:30;19.33;;;17.93;;
16994;SDS011;8614;48.522;9.206;2023-12-07T05:46:58;17.93;;;16.40;;
16994;SDS011;8614;48.522;9.206;2023-12-07T05:49:25;19.30;;;17.70;;
16994;SDS011;8614;48.522;9.206;2023-12-07T05:51:52;19.60;;;18.10;;
16994;SDS011;8614;48.522;9.206;2023-12-07T05:54:31;18.73;;;17.33;;
16994;SDS011;8614;48.522;9.206;2023-12-07T05:57:25;19.30;;;17.70;;
16994;SDS011;8614;48.522;9.206;2023-12-07T05:59:52;18.73;;;17.27;;
16994;SDS011;8614;48.522;9.206;2023-12-07T06:02:20;18.73;;;17.33;;
16994;SDS011;8614;48.522;9.206;2023-12-07T06:04:47;18.60;;;17.20;;
16994;SDS011;8614;48.522;9.206;2023-12-07T06:07:18;19.43;;;17.93;;
16994;SDS011;8614;48.522;9.206;2023-12-07T06:09:45;19.23;;;17.87;;
16994;SDS011;8614;48.522;9.206;2023-12-07T06:12:11;20.40;;;18.80;;
16994;SDS011;8614;48.522;9.206;2023-12-07T06:14:38;18.80;;;17.30;;
16994;SDS011;8614;48.522;9.206;2023-12-07T06:17:05;19.23;;;17.83;;
16994;SDS011;8614;48.522;9.206;2023-12-07T06:19:34;18.77;;;17.37;;
16994;SDS011;8614;48.522;9.206;2023-12-07T06:22:01;19.10;;;17.53;;
16994;SDS011;8614;48.522;9.206;2023-12-07T06:24:28;18.93;;;17.33;;
16994;SDS011;8614;48.522;9.206;2023-12-07T06:26:57;19.10;;;17.70;;
16994;SDS011;8614;48.522;9.206;2023-12-07T06:29:32;18.93;;;17.57;;
16994;SDS011;8614;48.522;9.206;2023-12-07T06:32:04;19.40;;;17.80;;
16994;SDS011;8614;48.522;9.206;2023-12-07T06:34:40;19.00;;;17.60;;
16994;SDS011;8614;48.522;9.206;2023-12-07T06:37:10;19.40;;;17.80;;
16994;SDS011;8614;48.522;9.206;2023-12-07T06:39:37;20.03;;;18.50;;
16994;SDS011;8614;48.522;9.206;2023-12-07T06:42:10;18.80;;;17.23;;
16994;SDS011;8614;48.522;9.206;2023-12-07T06:44:42;19.13;;;17.73;;
16994;SDS011;8614;48.522;9.206;2023-12-07T06:47:23;19.90;;;18.30;;
16994;SDS011;8614;48.522;9.206;2023-12-07T06:50:20;19.53;;;17.93;;
16994;SDS011;8614;48.522;9.206;2023-12-07T06:52:47;20.50;;;18.80;;
16994;SDS011;8614;48.522;9.206;2023-12-07T06:55:14;19.63;;;18.03;;
16994;SDS011;8614;48.522;9.206;2023-12-07T06:57:41;19.33;;;17.83;;
16994;SDS011;8614;48.522;9.206;2023-12-07T07:00:08;18.53;;;17.03;;
16994;SDS011;8614;48.522;9.206;2023-12-07T07:02:37;19.40;;;17.83;;
16994;SDS011;8614;48.522;9.206;2023-12-07T07:05:04;20.43;;;18.77;;
16994;SDS011;8614;48.522;9.206;2023-12-07T07:07:33;20.90;;;19.10;;
16994;SDS011;8614;48.522;9.206;2023-12-07T07:10:00;20.23;;;18.53;;
16994;SDS011;8614;48.522;9.206;2023-12-07T07:12:27;20.63;;;18.87;;
16994;SDS011;8614;48.522;9.206;2023-12-07T07:14:54;21.63;;;19.73;;
16994;SDS011;8614;48.522;9.206;2023-12-07T07:17:21;21.07;;;19.37;;
16994;SDS011;8614;48.522;9.206;2023-12-07T07:19:48;22.43;;;20.43;;
16994;SDS011;8614;48.522;9.206;2023-12-07T07:22:15;24.00;;;21.80;;
16994;SDS011;8614;48.522;9.206;2023-12-07T07:24:43;23.80;;;21.70;;
16994;SDS011;8614;48.522;9.206;2023-12-07T07:27:10;24.20;;;22.00;;
16994;SDS011;8614;48.522;9.206;2023-12-07T07:29:36;22.73;;;20.60;;
16994;SDS011;8614;48.522;9.206;2023-12-07T07:32:03;24.87;;;22.30;;
16994;SDS011;8614;48.522;9.206;2023-12-07T07:34:31;25.83;;;23.30;;
16994;SDS011;8614;48.522;9.206;2023-12-07T07:37:01;26.17;;;23.67;;
16994;SDS011;8614;48.522;9.206;2023-12-07T07:39:28;25.13;;;22.77;;
16994;SDS011;8614;48.522;9.206;2023-12-07T07:41:56;25.57;;;23.20;;
16994;SDS011;8614;48.522;9.206;2023-12-07T07:44:23;27.48;;;25.17;;
16994;SDS011;8614;48.522;9.206;2023-12-07T07:46:50;25.10;;;22.70;;
16994;SDS011;8614;48.522;9.206;2023-12-07T07:49:17;24.30;;;22.00;;
16994;SDS011;8614;48.522;9.206;2023-12-07T07:51:44;25.93;;;23.67;;
16994;SDS011;8614;48.522;9.206;2023-12-07T07:54:11;25.13;;;22.93;;
16994;SDS011;8614;48.522;9.206;2023-12-07T07:56:37;25.13;;;22.92;;
16994;SDS011;8614;48.522;9.206;2023-12-07T07:59:06;25.65;;;23.65;;
16994;SDS011;8614;48.522;9.206;2023-12-07T08:01:33;23.07;;;21.07;;
16994;SDS011;8614;48.522;9.206;2023-12-07T08:03:59;24.17;;;21.90;;
16994;SDS011;8614;48.522;9.206;2023-12-07T08:06:26;23.20;;;21.20;;
16994;SDS011;8614;48.522;9.206;2023-12-07T08:08:53;22.87;;;21.03;;
16994;SDS011;8614;48.522;9.206;2023-12-07T08:11:20;21.80;;;20.03;;
16994;SDS011;8614;48.522;9.206;2023-12-07T08:13:47;21.40;;;19.67;;
16994;SDS011;8614;48.522;9.206;2023-12-07T08:16:16;20.10;;;18.50;;
16994;SDS011;8614;48.522;9.206;2023-12-07T08:18:44;20.77;;;19.10;;
16994;SDS011;8614;48.522;9.206;2023-12-07T08:21:18;20.30;;;18.60;;
16994;SDS011;8614;48.522;9.206;2023-12-07T08:23:45;19.60;;;17.90;;
16994;SDS011;8614;48.522;9.206;2023-12-07T08:26:12;18.33;;;16.83;;
16994;SDS011;8614;48.522;9.206;2023-12-07T08:28:41;18.50;;;17.03;;
16994;SDS011;8614;48.522;9.206;2023-12-07T08:31:08;18.27;;;16.87;;
16994;SDS011;8614;48.522;9.206;2023-12-07T08:33:37;19.33;;;17.73;;
16994;SDS011;8614;48.522;9.206;2023-12-07T08:36:08;18.83;;;17.17;;
16994;SDS011;8614;48.522;9.206;2023-12-07T08:38:36;18.60;;;17.10;;
16994;SDS011;8614;48.522;9.206;2023-12-07T08:41:03;19.30;;;17.80;;
16994;SDS011;8614;48.522;9.206;2023-12-07T08:43:30;19.57;;;17.87;;
16994;SDS011;8614;48.522;9.206;2023-12-07T08:45:57;19.73;;;18.30;;
16994;SDS011;8614;48.522;9.206;2023-12-07T08:48:26;18.83;;;17.33;;
16994;SDS011;8614;48.522;9.206;2023-12-07T08:50:54;19.33;;;17.83;;
16994;SDS011;8614;48.522;9.206;2023-12-07T08:53:21;21.00;;;19.20;;
16994;SDS011;8614;48.522;9.206;2023-12-07T08:55:51;20.00;;;18.40;;
16994;SDS011;8614;48.522;9.206;2023-12-07T08:58:19;18.43;;;17.03;;
16994;SDS011;8614;48.522;9.206;2023-12-07T09:00:46;19.47;;;17.90;;
16994;SDS011;8614;48.522;9.206;2023-12-07T09:03:13;19.47;;;17.97;;
16994;SDS011;8614;48.522;9.206;2023-12-07T09:05:40;19.83;;;18.23;;
16994;SDS011;8614;48.522;9.206;2023-12-07T09:08:09;20.90;;;19.10;;
16994;SDS011;8614;48.522;9.206;2023-12-07T09:10:41;19.77;;;18.17;;
16994;SDS011;8614;48.522;9.206;2023-12-07T09:13:11;20.80;;;19.17;;
16994;SDS011;8614;48.522;9.206;2023-12-07T09:15:49;19.63;;;18.10;;
16994;SDS011;8614;48.522;9.206;2023-12-07T09:19:24;20.50;;;18.83;;
16994;SDS011;8614;48.522;9.206;2023-12-07T09:22:50;20.50;;;18.87;;
16994;SDS011;8614;48.522;9.206;2023-12-07T09:25:49;19.97;;;18.47;;
16994;SDS011;8614;48.522;9.206;2023-12-07T09:28:50;20.33;;;18.73;;
16994;SDS011;8614;48.522;9.206;2023-12-07T09:34:41;21.13;;;19.33;;
16994;SDS011;8614;48.522;9.206;2023-12-07T09:37:08;20.50;;;18.90;;
16994;SDS011;8614;48.522;9.206;2023-12-07T09:39:39;20.47;;;18.77;;
16994;SDS011;8614;48.522;9.206;2023-12-07T09:42:07;21.10;;;19.40;;
16994;SDS011;8614;48.522;9.206;2023-12-07T09:44:34;20.20;;;18.60;;
16994;SDS011;8614;48.522;9.206;2023-12-07T09:47:01;20.63;;;18.67;;
16994;SDS011;8614;48.522;9.206;2023-12-07T09:49:29;21.97;;;20.10;;
16994;SDS011;8614;48.522;9.206;2023-12-07T09:51:56;21.13;;;19.33;;
16994;SDS011;8614;48.522;9.206;2023-12-07T09:54:25;21.03;;;19.43;;
16994;SDS011;8614;48.522;9.206;2023-12-07T09:56:54;20.87;;;19.27;;
16994;SDS011;8614;48.522;9.206;2023-12-07T09:59:23;20.33;;;18.73;;
16994;SDS011;8614;48.522;9.206;2023-12-07T10:01:50;20.50;;;18.80;;
16994;SDS011;8614;48.522;9.206;2023-12-07T10:04:18;20.60;;;18.97;;
16994;SDS011;8614;48.522;9.206;2023-12-07T10:06:45;21.30;;;19.47;;
16994;SDS011;8614;48.522;9.206;2023-12-07T10:09:14;20.73;;;19.03;;
16994;SDS011;8614;48.522;9.206;2023-12-07T10:11:41;20.53;;;18.83;;
16994;SDS011;8614;48.522;9.206;2023-12-07T10:14:09;20.73;;;19.13;;
16994;SDS011;8614;48.522;9.206;2023-12-07T10:16:37;20.13;;;18.53;;
16994;SDS011;8614;48.522;9.206;2023-12-07T10:19:12;22.20;;;20.33;;
16994;SDS011;8614;48.522;9.206;2023-12-07T10:21:42;21.80;;;19.77;;
16994;SDS011;8614;48.522;9.206;2023-12-07T10:24:09;20.80;;;19.20;;
16994;SDS011;8614;48.522;9.206;2023-12-07T10:26:36;19.80;;;18.10;;
16994;SDS011;8614;48.522;9.206;2023-12-07T10:29:04;21.10;;;19.40;;
16994;SDS011;8614;48.522;9.206;2023-12-07T10:31:31;20.40;;;18.70;;
16994;SDS011;8614;48.522;9.206;2023-12-07T10:34:00;20.70;;;19.00;;
16994;SDS011;8614;48.522;9.206;2023-12-07T10:36:27;21.53;;;19.50;;
16994;SDS011;8614;48.522;9.206;2023-12-07T10:38:54;23.20;;;21.10;;
16994;SDS011;8614;48.522;9.206;2023-12-07T10:41:21;22.27;;;20.50;;
16994;SDS011;8614;48.522;9.206;2023-12-07T10:43:51;22.40;;;20.50;;
16994;SDS011;8614;48.522;9.206;2023-12-07T10:46:22;21.90;;;20.10;;
16994;SDS011;8614;48.522;9.206;2023-12-07T10:48:51;21.10;;;19.40;;
16994;SDS011;8614;48.522;9.206;2023-12-07T10:51:40;21.77;;;19.87;;
16994;SDS011;8614;48.522;9.206;2023-12-07T10:54:16;22.10;;;20.30;;
16994;SDS011;8614;48.522;9.206;2023-12-07T10:57:04;22.65;;;20.67;;
16994;SDS011;8614;48.522;9.206;2023-12-07T10:59:33;23.20;;;21.20;;
16994;SDS011;8614;48.522;9.206;2023-12-07T11:02:03;21.23;;;19.53;;
16994;SDS011;8614;48.522;9.206;2023-12-07T11:04:32;22.90;;;20.90;;
16994;SDS011;8614;48.522;9.206;2023-12-07T11:07:04;21.80;;;19.90;;
16994;SDS011;8614;48.522;9.206;2023-12-07T11:09:37;23.90;;;21.70;;
16994;SDS011;8614;48.522;9.206;2023-12-07T11:12:09;22.20;;;20.40;;
16994;SDS011;8614;48.522;9.206;2023-12-07T11:14:42;21.27;;;19.53;;
16994;SDS011;8614;48.522;9.206;2023-12-07T11:17:10;21.30;;;19.63;;
16994;SDS011;8614;48.522;9.206;2023-12-07T11:19:43;21.13;;;19.43;;
16994;SDS011;8614;48.522;9.206;2023-12-07T11:22:12;21.07;;;19.37;;
16994;SDS011;8614;48.522;9.206;2023-12-07T11:24:51;21.73;;;19.83;;
16994;SDS011;8614;48.522;9.206;2023-12-07T11:27:19;21.43;;;19.73;;
16994;SDS011;8614;48.522;9.206;2023-12-07T11:29:46;21.57;;;19.77;;
16994;SDS011;8614;48.522;9.206;2023-12-07T11:32:13;21.23;;;19.50;;
16994;SDS011;8614;48.522;9.206;2023-12-07T11:34:41;22.13;;;20.33;;
16994;SDS011;8614;48.522;9.206;2023-12-07T11:37:09;22.03;;;20.33;;
16994;SDS011;8614;48.522;9.206;2023-12-07T11:39:41;21.20;;;19.30;;
16994;SDS011;8614;48.522;9.206;2023-12-07T11:42:11;22.30;;;20.50;;
16994;SDS011;8614;48.522;9.206;2023-12-07T11:44:39;21.90;;;20.00;;
16994;SDS011;8614;48.522;9.206;2023-12-07T11:47:07;22.03;;;20.20;;
16994;SDS011;8614;48.522;9.206;2023-12-07T11:49:34;21.37;;;19.57;;
16994;SDS011;8614;48.522;9.206;2023-12-07T11:52:13;20.30;;;18.70;;
16994;SDS011;8614;48.522;9.206;2023-12-07T11:54:42;20.87;;;19.07;;
16994;SDS011;8614;48.522;9.206;2023-12-07T11:57:12;20.93;;;19.33;;
16994;SDS011;8614;48.522;9.206;2023-12-07T11:59:39;20.27;;;18.57;;
16994;SDS011;8614;48.522;9.206;2023-12-07T12:02:06;19.57;;;18.10;;
16994;SDS011;8614;48.522;9.206;2023-12-07T12:04:33;20.07;;;18.57;;
16994;SDS011;8614;48.522;9.206;2023-12-07T12:07:00;19.77;;;18.23;;
16994;SDS011;8614;48.522;9.206;2023-12-07T12:09:28;18.67;;;17.13;;
16994;SDS011;8614;48.522;9.206;2023-12-07T12:11:56;19.43;;;17.93;;
16994;SDS011;8614;48.522;9.206;2023-12-07T12:14:25;19.17;;;17.77;;
16994;SDS011;8614;48.522;9.206;2023-12-07T12:16:53;18.90;;;17.50;;
16994;SDS011;8614;48.522;9.206;2023-12-07T12:19:21;19.47;;;18.07;;
16994;SDS011;8614;48.522;9.206;2023-12-07T12:21:48;18.17;;;16.87;;
16994;SDS011;8614;48.522;9.206;2023-12-07T12:24:15;18.00;;;16.60;;
16994;SDS011;8614;48.522;9.206;2023-12-07T12:26:43;17.67;;;16.30;;
16994;SDS011;8614;48.522;9.206;2023-12-07T12:29:12;17.07;;;15.80;;
16994;SDS011;8614;48.522;9.206;2023-12-07T12:31:40;16.60;;;15.40;;
16994;SDS011;8614;48.522;9.206;2023-12-07T12:34:07;17.65;;;16.45;;
16994;SDS011;8614;48.522;9.206;2023-12-07T12:36:36;16.43;;;15.23;;
16994;SDS011;8614;48.522;9.206;2023-12-07T12:39:03;14.57;;;13.67;;
16994;SDS011;8614;48.522;9.206;2023-12-07T12:41:30;13.83;;;13.03;;
16994;SDS011;8614;48.522;9.206;2023-12-07T12:43:59;13.63;;;12.83;;
16994;SDS011;8614;48.522;9.206;2023-12-07T12:46:26;13.60;;;12.80;;
16994;SDS011;8614;48.522;9.206;2023-12-07T12:48:53;13.50;;;12.60;;
16994;SDS011;8614;48.522;9.206;2023-12-07T12:51:23;13.50;;;12.70;;
16994;SDS011;8614;48.522;9.206;2023-12-07T12:53:51;13.50;;;12.70;;
16994;SDS011;8614;48.522;9.206;2023-12-07T12:56:18;13.57;;;12.57;;
16994;SDS011;8614;48.522;9.206;2023-12-07T12:58:46;12.57;;;11.87;;
16994;SDS011;8614;48.522;9.206;2023-12-07T13:01:14;12.70;;;11.90;;
16994;SDS011;8614;48.522;9.206;2023-12-07T13:03:42;12.90;;;12.20;;
16994;SDS011;8614;48.522;9.206;2023-12-07T13:06:10;12.87;;;12.03;;
16994;SDS011;8614;48.522;9.206;2023-12-07T13:08:39;12.77;;;11.97;;
16994;SDS011;8614;48.522;9.206;2023-12-07T13:11:06;12.97;;;12.07;;
16994;SDS011;8614;48.522;9.206;2023-12-07T13:13:34;13.37;;;12.40;;
16994;SDS011;8614;48.522;9.206;2023-12-07T13:16:01;12.77;;;11.97;;
16994;SDS011;8614;48.522;9.206;2023-12-07T13:18:29;12.63;;;11.93;;
16994;SDS011;8614;48.522;9.206;2023-12-07T13:20:56;12.87;;;12.07;;
16994;SDS011;8614;48.522;9.206;2023-12-07T13:23:24;12.47;;;11.70;;
16994;SDS011;8614;48.522;9.206;2023-12-07T13:25:51;12.33;;;11.63;;
16994;SDS011;8614;48.522;9.206;2023-12-07T13:28:19;12.97;;;12.17;;
16994;SDS011;8614;48.522;9.206;2023-12-07T13:30:46;12.53;;;11.67;;
16994;SDS011;8614;48.522;9.206;2023-12-07T13:33:12;12.83;;;11.97;;
16994;SDS011;8614;48.522;9.206;2023-12-07T13:35:40;12.20;;;11.50;;
16994;SDS011;8614;48.522;9.206;2023-12-07T13:38:07;12.17;;;11.47;;
16994;SDS011;8614;48.522;9.206;2023-12-07T13:40:34;12.70;;;11.87;;
16994;SDS011;8614;48.522;9.206;2023-12-07T13:43:02;12.87;;;12.07;;
16994;SDS011;8614;48.522;9.206;2023-12-07T13:45:29;12.70;;;11.90;;
16994;SDS011;8614;48.522;9.206;2023-12-07T13:48:11;12.33;;;11.63;;
16994;SDS011;8614;48.522;9.206;2023-12-07T13:51:26;12.27;;;11.47;;
16994;SDS011;8614;48.522;9.206;2023-12-07T13:53:53;12.40;;;11.60;;
16994;SDS011;8614;48.522;9.206;2023-12-07T13:56:21;12.67;;;11.80;;
16994;SDS011;8614;48.522;9.206;2023-12-07T13:58:49;12.03;;;11.33;;
16994;SDS011;8614;48.522;9.206;2023-12-07T14:01:16;12.00;;;11.20;;
16994;SDS011;8614;48.522;9.206;2023-12-07T14:03:43;13.03;;;12.13;;
16994;SDS011;8614;48.522;9.206;2023-12-07T14:06:10;12.27;;;11.47;;
16994;SDS011;8614;48.522;9.206;2023-12-07T14:08:40;12.90;;;12.00;;
16994;SDS011;8614;48.522;9.206;2023-12-07T14:11:07;12.27;;;11.57;;
16994;SDS011;8614;48.522;9.206;2023-12-07T14:13:37;12.73;;;11.93;;
16994;SDS011;8614;48.522;9.206;2023-12-07T14:16:05;12.50;;;11.70;;
16994;SDS011;8614;48.522;9.206;2023-12-07T14:18:33;13.13;;;12.23;;
16994;SDS011;8614;48.522;9.206;2023-12-07T14:21:00;12.07;;;11.37;;
16994;SDS011;8614;48.522;9.206;2023-12-07T14:23:27;12.30;;;11.53;;
16994;SDS011;8614;48.522;9.206;2023-12-07T14:25:55;11.90;;;11.20;;
16994;SDS011;8614;48.522;9.206;2023-12-07T14:31:23;11.90;;;11.20;;
16994;SDS011;8614;48.522;9.206;2023-12-07T14:33:50;12.10;;;11.30;;
16994;SDS011;8614;48.522;9.206;2023-12-07T14:36:37;12.50;;;11.70;;
16994;SDS011;8614;48.522;9.206;2023-12-07T14:39:10;12.57;;;11.70;;
16994;SDS011;8614;48.522;9.206;2023-12-07T14:44:38;12.20;;;11.50;;
16994;SDS011;8614;48.522;9.206;2023-12-07T14:47:05;12.20;;;11.50;;
16994;SDS011;8614;48.522;9.206;2023-12-07T14:49:32;12.10;;;11.40;;
16994;SDS011;8614;48.522;9.206;2023-12-07T14:51:59;12.57;;;11.67;;
16994;SDS011;8614;48.522;9.206;2023-12-07T14:54:26;12.50;;;11.80;;
16994;SDS011;8614;48.522;9.206;2023-12-07T14:56:53;13.00;;;12.30;;
16994;SDS011;8614;48.522;9.206;2023-12-07T14:59:23;12.80;;;12.07;;
16994;SDS011;8614;48.522;9.206;2023-12-07T15:01:50;12.90;;;12.10;;
16994;SDS011;8614;48.522;9.206;2023-12-07T15:04:17;13.37;;;12.57;;
16994;SDS011;8614;48.522;9.206;2023-12-07T15:06:44;13.10;;;12.20;;
16994;SDS011;8614;48.522;9.206;2023-12-07T15:09:11;13.27;;;12.37;;
16994;SDS011;8614;48.522;9.206;2023-12-07T15:11:38;14.30;;;13.43;;
16994;SDS011;8614;48.522;9.206;2023-12-07T15:14:05;13.97;;;13.07;;
16994;SDS011;8614;48.522;9.206;2023-12-07T15:16:34;13.57;;;12.77;;
16994;SDS011;8614;48.522;9.206;2023-12-07T15:19:01;14.07;;;13.03;;
16994;SDS011;8614;48.522;9.206;2023-12-07T15:21:28;13.13;;;12.33;;
16994;SDS011;8614;48.522;9.206;2023-12-07T15:23:55;13.47;;;12.67;;
16994;SDS011;8614;48.522;9.206;2023-12-07T15:26:22;13.43;;;12.53;;
16994;SDS011;8614;48.522;9.206;2023-12-07T15:28:48;13.43;;;12.43;;
16994;SDS011;8614;48.522;9.206;2023-12-07T15:31:15;13.60;;;12.70;;
16994;SDS011;8614;48.522;9.206;2023-12-07T15:33:43;14.20;;;13.20;;
16994;SDS011;8614;48.522;9.206;2023-12-07T15:36:10;14.10;;;13.00;;
16994;SDS011;8614;48.522;9.206;2023-12-07T15:38:38;13.73;;;12.63;;
16994;SDS011;8614;48.522;9.206;2023-12-07T15:41:05;13.00;;;12.00;;
16994;SDS011;8614;48.522;9.206;2023-12-07T15:43:33;13.70;;;12.70;;
16994;SDS011;8614;48.522;9.206;2023-12-07T15:46:00;13.50;;;12.60;;
16994;SDS011;8614;48.522;9.206;2023-12-07T15:48:28;14.37;;;13.40;;
16994;SDS011;8614;48.522;9.206;2023-12-07T15:50:56;13.70;;;12.80;;
16994;SDS011;8614;48.522;9.206;2023-12-07T15:53:23;13.13;;;12.23;;
16994;SDS011;8614;48.522;9.206;2023-12-07T15:55:50;13.93;;;12.93;;
16994;SDS011;8614;48.522;9.206;2023-12-07T15:58:16;13.60;;;12.70;;
16994;SDS011;8614;48.522;9.206;2023-12-07T16:00:43;14.13;;;13.13;;
16994;SDS011;8614;48.522;9.206;2023-12-07T16:03:10;13.67;;;12.67;;
16994;SDS011;8614;48.522;9.206;2023-12-07T16:05:37;13.57;;;12.67;;
16994;SDS011;8614;48.522;9.206;2023-12-07T16:08:05;14.70;;;13.60;;
16994;SDS011;8614;48.522;9.206;2023-12-07T16:10:32;14.43;;;13.27;;
16994;SDS011;8614;48.522;9.206;2023-12-07T16:13:00;14.50;;;13.50;;
16994;SDS011;8614;48.522;9.206;2023-12-07T16:15:27;14.80;;;13.80;;
16994;SDS011;8614;48.522;9.206;2023-12-07T16:17:53;14.70;;;13.57;;
16994;SDS011;8614;48.522;9.206;2023-12-07T16:20:20;14.40;;;13.33;;
16994;SDS011;8614;48.522;9.206;2023-12-07T16:22:47;14.17;;;13.07;;
16994;SDS011;8614;48.522;9.206;2023-12-07T16:25:15;13.90;;;12.83;;
16994;SDS011;8614;48.522;9.206;2023-12-07T16:27:42;14.30;;;13.30;;
16994;SDS011;8614;48.522;9.206;2023-12-07T16:30:09;14.00;;;13.00;;
16994;SDS011;8614;48.522;9.206;2023-12-07T16:32:39;14.23;;;13.13;;
16994;SDS011;8614;48.522;9.206;2023-12-07T16:35:09;14.33;;;13.23;;
16994;SDS011;8614;48.522;9.206;2023-12-07T16:37:36;14.70;;;13.60;;
16994;SDS011;8614;48.522;9.206;2023-12-07T16:40:04;13.73;;;12.73;;
16994;SDS011;8614;48.522;9.206;2023-12-07T16:42:34;14.37;;;13.37;;
16994;SDS011;8614;48.522;9.206;2023-12-07T16:45:02;14.93;;;13.70;;
16994;SDS011;8614;48.522;9.206;2023-12-07T16:47:30;14.63;;;13.57;;
16994;SDS011;8614;48.522;9.206;2023-12-07T16:49:57;14.03;;;13.03;;
16994;SDS011;8614;48.522;9.206;2023-12-07T16:52:24;15.00;;;13.90;;
16994;SDS011;8614;48.522;9.206;2023-12-07T16:54:51;15.30;;;14.03;;
16994;SDS011;8614;48.522;9.206;2023-12-07T16:57:19;15.00;;;13.90;;
16994;SDS011;8614;48.522;9.206;2023-12-07T16:59:48;14.67;;;13.57;;
16994;SDS011;8614;48.522;9.206;2023-12-07T17:02:15;13.67;;;12.60;;
16994;SDS011;8614;48.522;9.206;2023-12-07T17:04:42;14.50;;;13.43;;
16994;SDS011;8614;48.522;9.206;2023-12-07T17:07:08;15.67;;;14.40;;
16994;SDS011;8614;48.522;9.206;2023-12-07T17:09:35;14.60;;;13.40;;
16994;SDS011;8614;48.522;9.206;2023-12-07T17:12:02;15.20;;;14.10;;
16994;SDS011;8614;48.522;9.206;2023-12-07T17:14:29;14.80;;;13.60;;
16994;SDS011;8614;48.522;9.206;2023-12-07T17:16:57;15.13;;;13.97;;
16994;SDS011;8614;48.522;9.206;2023-12-07T17:19:24;14.80;;;13.70;;
16994;SDS011;8614;48.522;9.206;2023-12-07T17:21:51;15.13;;;13.93;;
16994;SDS011;8614;48.522;9.206;2023-12-07T17:24:19;15.50;;;14.33;;
16994;SDS011;8614;48.522;9.206;2023-12-07T17:26:46;15.07;;;14.07;;
16994;SDS011;8614;48.522;9.206;2023-12-07T17:29:13;14.53;;;13.47;;
16994;SDS011;8614;48.522;9.206;2023-12-07T17:31:40;15.67;;;14.57;;
16994;SDS011;8614;48.522;9.206;2023-12-07T17:34:09;15.20;;;14.17;;
16994;SDS011;8614;48.522;9.206;2023-12-07T17:36:36;15.17;;;14.07;;
16994;SDS011;8614;48.522;9.206;2023-12-07T17:39:02;15.33;;;13.97;;
16994;SDS011;8614;48.522;9.206;2023-12-07T17:41:29;14.13;;;13.13;;
16994;SDS011;8614;48.522;9.206;2023-12-07T17:43:56;14.77;;;13.47;;
16994;SDS011;8614;48.522;9.206;2023-12-07T17:46:23;14.10;;;13.00;;
16994;SDS011;8614;48.522;9.206;2023-12-07T17:48:50;14.97;;;13.77;;
16994;SDS011;8614;48.522;9.206;2023-12-07T17:51:18;14.40;;;13.20;;
16994;SDS011;8614;48.522;9.206;2023-12-07T17:53:45;13.83;;;12.73;;
16994;SDS011;8614;48.522;9.206;2023-12-07T17:56:11;14.90;;;13.50;;
16994;SDS011;8614;48.522;9.206;2023-12-07T17:58:38;13.43;;;12.53;;
16994;SDS011;8614;48.522;9.206;2023-12-07T18:01:05;14.50;;;13.50;;
16994;SDS011;8614;48.522;9.206;2023-12-07T18:03:31;14.60;;;13.53;;
16994;SDS011;8614;48.522;9.206;2023-12-07T18:05:58;15.20;;;13.70;;
16994;SDS011;8614;48.522;9.206;2023-12-07T18:08:26;14.03;;;12.93;;
16994;SDS011;8614;48.522;9.206;2023-12-07T18:10:53;13.83;;;12.90;;
16994;SDS011;8614;48.522;9.206;2023-12-07T18:13:19;14.27;;;13.17;;
16994;SDS011;8614;48.522;9.206;2023-12-07T18:15:46;14.27;;;13.17;;
16994;SDS011;8614;48.522;9.206;2023-12-07T18:18:15;13.57;;;12.60;;
16994;SDS011;8614;48.522;9.206;2023-12-07T18:20:42;14.30;;;13.30;;
16994;SDS011;8614;48.522;9.206;2023-12-07T18:23:12;13.87;;;12.87;;
16994;SDS011;8614;48.522;9.206;2023-12-07T18:25:40;14.30;;;13.00;;
16994;SDS011;8614;48.522;9.206;2023-12-07T18:28:07;14.30;;;13.20;;
16994;SDS011;8614;48.522;9.206;2023-12-07T18:30:34;14.77;;;13.47;;
16994;SDS011;8614;48.522;9.206;2023-12-07T18:33:03;13.70;;;12.70;;
16994;SDS011;8614;48.522;9.206;2023-12-07T18:35:30;13.97;;;12.77;;
16994;SDS011;8614;48.522;9.206;2023-12-07T18:37:56;13.53;;;12.57;;
16994;SDS011;8614;48.522;9.206;2023-12-07T18:40:25;13.70;;;12.70;;
16994;SDS011;8614;48.522;9.206;2023-12-07T18:42:54;13.70;;;12.70;;
16994;SDS011;8614;48.522;9.206;2023-12-07T18:45:21;13.77;;;12.67;;
16994;SDS011;8614;48.522;9.206;2023-12-07T18:47:48;15.10;;;13.67;;
16994;SDS011;8614;48.522;9.206;2023-12-07T18:50:15;14.60;;;13.30;;
16994;SDS011;8614;48.522;9.206;2023-12-07T18:52:42;15.00;;;13.80;;
16994;SDS011;8614;48.522;9.206;2023-12-07T18:55:09;16.37;;;14.93;;
16994;SDS011;8614;48.522;9.206;2023-12-07T18:57:38;16.43;;;14.83;;
16994;SDS011;8614;48.522;9.206;2023-12-07T19:00:08;15.27;;;14.00;;
16994;SDS011;8614;48.522;9.206;2023-12-07T19:02:38;16.03;;;14.73;;
16994;SDS011;8614;48.522;9.206;2023-12-07T19:05:06;13.90;;;12.90;;
16994;SDS011;8614;48.522;9.206;2023-12-07T19:07:33;13.80;;;12.70;;
16994;SDS011;8614;48.522;9.206;2023-12-07T19:10:00;13.33;;;12.30;;
16994;SDS011;8614;48.522;9.206;2023-12-07T19:12:27;13.70;;;12.60;;
16994;SDS011;8614;48.522;9.206;2023-12-07T19:14:53;13.77;;;12.73;;
16994;SDS011;8614;48.522;9.206;2023-12-07T19:17:22;13.47;;;12.47;;
16994;SDS011;8614;48.522;9.206;2023-12-07T19:19:49;13.83;;;12.83;;
16994;SDS011;8614;48.522;9.206;2023-12-07T19:26:07;13.57;;;12.67;;
16994;SDS011;8614;48.522;9.206;2023-12-07T19:28:36;13.50;;;12.60;;
16994;SDS011;8614;48.522;9.206;2023-12-07T19:31:04;14.33;;;13.23;;
16994;SDS011;8614;48.522;9.206;2023-12-07T19:33:32;14.37;;;13.17;;
16994;SDS011;8614;48.522;9.206;2023-12-07T19:36:00;13.43;;;12.43;;
16994;SDS011;8614;48.522;9.206;2023-12-07T19:38:27;14.53;;;13.40;;
16994;SDS011;8614;48.522;9.206;2023-12-07T19:40:54;13.90;;;12.90;;
16994;SDS011;8614;48.522;9.206;2023-12-07T19:43:20;14.40;;;13.40;;
16994;SDS011;8614;48.522;9.206;2023-12-07T19:45:47;13.80;;;12.83;;
16994;SDS011;8614;48.522;9.206;2023-12-07T19:48:14;14.13;;;13.13;;
16994;SDS011;8614;48.522;9.206;2023-12-07T19:50:42;13.73;;;12.73;;
16994;SDS011;8614;48.522;9.206;2023-12-07T19:53:09;14.13;;;13.13;;
16994;SDS011;8614;48.522;9.206;2023-12-07T19:55:36;15.23;;;14.03;;
16994;SDS011;8614;48.522;9.206;2023-12-07T20:01:08;19.00;;;17.13;;
16994;SDS011;8614;48.522;9.206;2023-12-07T20:03:35;18.73;;;17.00;;
16994;SDS011;8614;48.522;9.206;2023-12-07T20:06:06;19.57;;;17.77;;
16994;SDS011;8614;48.522;9.206;2023-12-07T20:08:40;17.73;;;16.17;;
16994;SDS011;8614;48.522;9.206;2023-12-07T20:11:21;17.10;;;15.67;;